createdAt,value
2023-02-02T00:01:41.955Z,1.90
2023-02-02T00:04:09.205Z,1.90
2023-02-02T00:06:35.616Z,1.63
2023-02-02T00:09:02.838Z,1.65
2023-02-02T00:11:29.163Z,1.98
2023-02-02T00:13:55.588Z,2.10
2023-02-02T00:16:21.964Z,1.55
2023-02-02T00:18:48.880Z,2.25
2023-02-02T00:21:15.244Z,1.60
2023-02-02T00:23:41.630Z,1.60
2023-02-02T00:26:08.014Z,1.60
2023-02-02T00:28:34.434Z,1.88
2023-02-02T00:31:00.828Z,1.90
2023-02-02T00:33:27.170Z,1.63
2023-02-02T00:35:53.731Z,1.58
2023-02-02T00:38:20.299Z,1.95
2023-02-02T00:40:46.720Z,1.98
2023-02-02T00:43:13.082Z,1.83
2023-02-02T00:45:39.773Z,2.50
2023-02-02T00:48:06.242Z,2.20
2023-02-02T00:50:32.639Z,1.98
2023-02-02T00:52:59.141Z,1.60
2023-02-02T00:55:26.788Z,1.75
2023-02-02T00:57:53.269Z,1.80
2023-02-02T01:00:23.568Z,1.90
2023-02-02T01:02:50.553Z,2.20
2023-02-02T01:05:17.042Z,1.73
2023-02-02T01:07:43.875Z,2.00
2023-02-02T01:10:15.093Z,1.60
2023-02-02T01:12:41.736Z,2.20
2023-02-02T01:15:08.506Z,1.88
2023-02-02T01:17:34.859Z,1.42
2023-02-02T01:20:01.323Z,2.17
2023-02-02T01:22:27.726Z,1.63
2023-02-02T01:24:54.150Z,1.50
2023-02-02T01:27:20.637Z,1.90
2023-02-02T01:29:47.058Z,1.83
2023-02-02T01:32:13.401Z,2.13
2023-02-02T01:34:41.807Z,1.40
2023-02-02T01:37:08.599Z,1.65
2023-02-02T01:39:35.264Z,3.03
2023-02-02T01:42:01.668Z,1.65
2023-02-02T01:44:46.549Z,1.70
2023-02-02T01:47:13.115Z,1.55
2023-02-02T01:49:40.151Z,1.92
2023-02-02T01:52:06.768Z,1.27
2023-02-02T01:54:44.794Z,1.40
2023-02-02T01:57:17.049Z,2.38
2023-02-02T01:59:44.604Z,1.33
2023-02-02T02:02:11.206Z,1.63
2023-02-02T02:04:37.886Z,1.92
2023-02-02T02:07:04.713Z,1.75
2023-02-02T02:09:31.204Z,1.70
2023-02-02T02:11:57.554Z,1.65
2023-02-02T02:14:42.666Z,2.28
2023-02-02T02:17:27.501Z,1.45
2023-02-02T02:20:12.572Z,1.60
2023-02-02T02:23:16.236Z,1.60
2023-02-02T02:26:20.117Z,1.20
2023-02-02T02:28:58.237Z,1.65
2023-02-02T02:31:27.523Z,1.40
2023-02-02T02:34:02.952Z,1.60
2023-02-02T02:36:47.887Z,1.70
2023-02-02T02:39:18.648Z,1.25
2023-02-02T02:41:49.213Z,1.50
2023-02-02T02:44:16.935Z,1.58
2023-02-02T02:46:44.130Z,1.77
2023-02-02T02:49:11.948Z,2.20
2023-02-02T02:54:04.643Z,1.33
2023-02-02T02:56:40.253Z,1.33
2023-02-02T02:59:22.610Z,1.55
2023-02-02T03:01:55.699Z,2.10
2023-02-02T03:04:23.339Z,1.67
2023-02-02T03:06:55.340Z,1.75
2023-02-02T03:09:23.225Z,2.00
2023-02-02T03:14:15.851Z,1.27
2023-02-02T03:16:42.217Z,1.25
2023-02-02T03:19:09.082Z,2.00
2023-02-02T03:21:35.642Z,1.35
2023-02-02T03:24:02.652Z,2.13
2023-02-02T03:26:29.296Z,1.93
2023-02-02T03:28:56.655Z,1.20
2023-02-02T03:31:23.508Z,1.38
2023-02-02T03:33:49.830Z,1.33
2023-02-02T03:36:16.229Z,1.60
2023-02-02T03:38:42.619Z,1.63
2023-02-02T03:41:09.018Z,2.00
2023-02-02T03:43:35.419Z,1.40
2023-02-02T03:46:04.279Z,1.80
2023-02-02T03:48:30.991Z,1.60
2023-02-02T03:50:57.677Z,1.80
2023-02-02T03:53:24.063Z,1.63
2023-02-02T03:55:50.577Z,1.80
2023-02-02T03:58:17.631Z,1.30
2023-02-02T04:00:44.065Z,2.10
2023-02-02T04:03:10.500Z,1.48
2023-02-02T04:05:36.954Z,1.92
2023-02-02T04:08:03.406Z,1.40
2023-02-02T04:10:29.859Z,1.50
2023-02-02T04:12:56.210Z,1.30
2023-02-02T04:15:22.910Z,1.10
2023-02-02T04:17:49.520Z,1.08
2023-02-02T04:20:16.033Z,1.30
2023-02-02T04:22:42.396Z,1.10
2023-02-02T04:25:08.945Z,1.00
2023-02-02T04:27:35.304Z,1.30
2023-02-02T04:30:01.619Z,1.50
2023-02-02T04:32:28.022Z,1.38
2023-02-02T04:34:54.458Z,1.70
2023-02-02T04:37:20.795Z,1.60
2023-02-02T04:39:48.513Z,1.15
2023-02-02T04:42:14.921Z,1.20
2023-02-02T04:44:41.641Z,1.23
2023-02-02T04:47:08.051Z,1.83
2023-02-02T04:49:34.397Z,1.15
2023-02-02T04:52:00.768Z,1.23
2023-02-02T04:54:27.171Z,1.27
2023-02-02T04:56:53.531Z,1.42
2023-02-02T04:59:19.879Z,1.00
2023-02-02T05:01:46.508Z,1.20
2023-02-02T05:04:12.930Z,1.10
2023-02-02T05:06:39.263Z,0.82
2023-02-02T05:09:05.674Z,1.33
2023-02-02T05:11:32.137Z,1.10
2023-02-02T05:13:58.469Z,1.20
2023-02-02T05:16:27.027Z,1.17
2023-02-02T05:18:56.866Z,1.15
2023-02-02T05:21:23.972Z,1.42
2023-02-02T05:23:50.394Z,2.50
2023-02-02T05:26:18.575Z,1.60
2023-02-02T05:28:45.332Z,1.70
2023-02-02T05:31:11.756Z,1.45
2023-02-02T05:33:38.244Z,1.35
2023-02-02T05:36:04.874Z,0.93
2023-02-02T05:38:31.417Z,1.20
2023-02-02T05:40:57.783Z,1.27
2023-02-02T05:43:28.717Z,1.48
2023-02-02T05:45:55.384Z,1.30
2023-02-02T05:48:22.064Z,1.00
2023-02-02T05:50:57.873Z,1.40
2023-02-02T05:53:24.503Z,1.23
2023-02-02T05:55:50.835Z,1.40
2023-02-02T05:58:17.173Z,1.20
2023-02-02T06:00:43.555Z,1.05
2023-02-02T06:03:09.970Z,1.10
2023-02-02T06:05:36.338Z,1.10
2023-02-02T06:08:02.719Z,1.10
2023-02-02T06:10:29.155Z,1.52
2023-02-02T06:12:55.484Z,1.52
2023-02-02T06:15:21.964Z,1.10
2023-02-02T06:17:48.377Z,1.30
2023-02-02T06:20:14.809Z,0.85
2023-02-02T06:22:41.273Z,1.20
2023-02-02T06:25:08.727Z,0.80
2023-02-02T06:27:35.100Z,0.90
2023-02-02T06:30:01.497Z,1.40
2023-02-02T06:32:30.835Z,0.95
2023-02-02T06:34:57.188Z,0.63
2023-02-02T06:37:23.596Z,0.75
2023-02-02T06:39:49.999Z,0.70
2023-02-02T06:42:21.582Z,0.60
2023-02-02T06:44:48.347Z,0.80
2023-02-02T06:47:14.704Z,1.05
2023-02-02T06:49:41.050Z,0.90
2023-02-02T06:52:07.793Z,1.30
2023-02-02T06:54:34.116Z,1.25
2023-02-02T06:57:00.480Z,0.82
2023-02-02T06:59:26.819Z,1.70
2023-02-02T07:01:53.302Z,3.78
2023-02-02T07:04:20.296Z,1.63
2023-02-02T07:06:46.695Z,1.73
2023-02-02T07:09:13.216Z,0.70
2023-02-02T07:11:43.823Z,1.25
2023-02-02T07:14:11.955Z,1.00
2023-02-02T07:16:38.289Z,0.88
2023-02-02T07:19:04.716Z,0.70
2023-02-02T07:21:35.962Z,0.60
2023-02-02T07:24:02.758Z,0.60
2023-02-02T07:26:29.271Z,0.88
2023-02-02T07:28:56.019Z,0.80
2023-02-02T07:31:23.970Z,1.30
2023-02-02T07:33:50.734Z,0.95
2023-02-02T07:36:18.552Z,0.90
2023-02-02T07:41:11.533Z,0.88
2023-02-02T07:43:38.039Z,0.80
2023-02-02T07:46:08.134Z,1.50
2023-02-02T07:48:34.946Z,2.65
2023-02-02T07:51:02.156Z,1.50
2023-02-02T07:53:28.856Z,1.73
2023-02-02T07:56:05.202Z,1.38
2023-02-02T07:58:33.719Z,1.60
2023-02-02T08:01:01.208Z,1.08
2023-02-02T08:03:27.811Z,1.63
2023-02-02T08:05:57.652Z,1.25
2023-02-02T08:08:24.068Z,1.58
2023-02-02T08:10:54.193Z,0.57
2023-02-02T08:13:20.733Z,0.88
2023-02-02T08:15:47.305Z,1.27
2023-02-02T08:18:13.790Z,1.33
2023-02-02T08:20:43.068Z,1.40
2023-02-02T08:23:15.585Z,0.93
2023-02-02T08:25:42.607Z,0.90
2023-02-02T08:28:09.056Z,1.40
2023-02-02T08:30:38.225Z,1.23
2023-02-02T08:33:04.611Z,0.82
2023-02-02T08:35:30.990Z,1.05
2023-02-02T08:37:57.364Z,1.23
2023-02-02T08:40:25.291Z,1.23
2023-02-02T08:42:53.280Z,1.13
2023-02-02T08:46:04.432Z,0.90
2023-02-02T08:48:12.012Z,1.10
2023-02-02T08:50:39.215Z,1.10
2023-02-02T08:53:05.701Z,1.27
2023-02-02T08:55:34.395Z,1.27
2023-02-02T08:58:00.790Z,1.45
2023-02-02T09:00:29.482Z,1.08
2023-02-02T09:02:58.583Z,1.05
2023-02-02T09:05:25.183Z,1.17
2023-02-02T09:07:51.780Z,1.35
2023-02-02T09:10:18.233Z,1.55
2023-02-02T09:12:44.629Z,1.80
2023-02-02T09:15:12.098Z,1.30
2023-02-02T09:17:41.588Z,1.13
2023-02-02T09:20:08.184Z,1.13
2023-02-02T09:22:34.574Z,1.30
2023-02-02T09:25:00.974Z,1.05
2023-02-02T09:27:27.445Z,0.85
2023-02-02T09:29:53.831Z,1.10
2023-02-02T09:32:20.208Z,1.83
2023-02-02T09:34:46.656Z,3.10
2023-02-02T09:37:13.056Z,4.75
2023-02-02T09:39:39.388Z,0.73
2023-02-02T09:42:29.018Z,1.40
2023-02-02T09:45:04.716Z,0.88
2023-02-02T09:47:45.785Z,1.30
2023-02-02T09:50:14.930Z,1.23
2023-02-02T09:52:47.823Z,1.25
2023-02-02T09:55:19.587Z,1.38
2023-02-02T09:57:48.871Z,1.30
2023-02-02T10:00:38.621Z,1.13
2023-02-02T10:03:10.017Z,1.50
2023-02-02T10:05:43.729Z,1.25
2023-02-02T10:08:16.605Z,1.05
2023-02-02T10:10:47.054Z,1.10
2023-02-02T10:13:16.223Z,1.00
2023-02-02T10:15:49.280Z,1.10
2023-02-02T10:18:18.818Z,1.20
2023-02-02T10:20:51.184Z,0.98
2023-02-02T10:23:22.601Z,1.20
2023-02-02T10:25:55.588Z,1.63
2023-02-02T10:28:26.935Z,1.23
2023-02-02T10:30:59.232Z,0.90
2023-02-02T10:33:28.822Z,1.05
2023-02-02T10:36:07.520Z,1.00
2023-02-02T10:38:39.957Z,1.33
2023-02-02T10:41:12.456Z,0.95
2023-02-02T10:43:47.689Z,1.25
2023-02-02T10:46:17.175Z,0.90
2023-02-02T10:48:46.434Z,1.02
2023-02-02T10:51:20.271Z,0.80
2023-02-02T10:53:51.218Z,0.90
2023-02-02T10:56:19.495Z,0.68
2023-02-02T10:58:53.055Z,0.70
2023-02-02T11:01:22.979Z,0.50
2023-02-02T11:04:09.567Z,1.25
2023-02-02T11:06:51.282Z,1.00
2023-02-02T11:09:36.631Z,0.98
2023-02-02T11:12:05.813Z,1.13
2023-02-02T11:14:46.124Z,0.93
2023-02-02T11:17:22.848Z,0.80
2023-02-02T11:19:54.820Z,0.40
2023-02-02T11:22:28.114Z,0.73
2023-02-02T11:24:55.303Z,0.60
2023-02-02T11:27:27.434Z,0.50
2023-02-02T11:29:55.160Z,0.57
2023-02-02T11:32:24.510Z,0.45
2023-02-02T11:35:09.745Z,0.60
2023-02-02T11:37:37.632Z,0.43
2023-02-02T11:40:24.304Z,0.40
2023-02-02T11:42:51.841Z,0.60
2023-02-02T11:45:19.579Z,0.57
2023-02-02T11:50:28.807Z,0.57
2023-02-02T11:52:55.449Z,0.40
2023-02-02T11:55:29.267Z,0.45
2023-02-02T11:58:12.083Z,0.35
2023-02-02T12:00:48.943Z,0.40
2023-02-02T12:03:26.081Z,0.60
2023-02-02T12:05:52.556Z,0.30
2023-02-02T12:08:22.270Z,0.50
2023-02-02T12:10:57.977Z,0.30
2023-02-02T12:13:42.551Z,0.52
2023-02-02T12:16:17.945Z,0.55
2023-02-02T12:18:47.070Z,0.35
2023-02-02T12:21:22.698Z,0.35
2023-02-02T12:24:07.848Z,0.55
2023-02-02T12:26:35.380Z,0.32
2023-02-02T12:31:37.361Z,0.75
2023-02-02T12:34:06.695Z,0.80
2023-02-02T12:36:53.077Z,0.60
2023-02-02T12:39:19.466Z,0.50
2023-02-02T12:41:54.807Z,0.43
2023-02-02T12:44:40.272Z,0.45
2023-02-02T12:47:09.380Z,0.50
2023-02-02T12:49:35.698Z,0.40
2023-02-02T12:52:22.755Z,0.43
2023-02-02T12:55:01.823Z,0.32
2023-02-02T12:57:40.373Z,0.45
2023-02-02T13:00:06.864Z,0.50
2023-02-02T13:02:51.959Z,0.43
2023-02-02T13:05:32.986Z,0.40
2023-02-02T13:08:02.574Z,0.57
2023-02-02T13:10:31.923Z,0.50
2023-02-02T13:13:03.401Z,0.47
2023-02-02T13:15:33.983Z,0.30
2023-02-02T13:18:01.615Z,0.35
2023-02-02T13:20:46.531Z,0.60
2023-02-02T13:23:21.311Z,0.60
2023-02-02T13:25:49.436Z,0.50
2023-02-02T13:28:34.228Z,0.75
2023-02-02T13:31:05.407Z,0.43
2023-02-02T13:33:34.342Z,0.43
2023-02-02T13:36:02.493Z,1.83
2023-02-02T13:38:34.841Z,5.47
2023-02-02T13:41:04.832Z,3.53
2023-02-02T13:43:50.367Z,8.05
2023-02-02T13:46:21.564Z,16.63
2023-02-02T13:48:47.979Z,15.90
2023-02-02T13:51:27.740Z,17.45
2023-02-02T13:53:59.995Z,7.47
2023-02-02T13:56:39.170Z,2.20
2023-02-02T13:59:24.283Z,3.10
2023-02-02T14:01:51.359Z,2.20
2023-02-02T14:04:21.730Z,7.10
2023-02-02T14:06:56.950Z,2.45
2023-02-02T14:09:25.459Z,1.40
2023-02-02T14:11:55.105Z,1.80
2023-02-02T14:14:38.950Z,1.30
2023-02-02T14:17:05.328Z,1.00
2023-02-02T14:19:34.999Z,1.00
2023-02-02T14:22:02.790Z,1.40
2023-02-02T14:27:08.096Z,1.40
2023-02-02T14:29:39.423Z,1.92
2023-02-02T14:32:11.499Z,1.23
2023-02-02T14:34:42.006Z,1.00
2023-02-02T14:37:40.623Z,0.80
2023-02-02T14:40:06.974Z,1.67
2023-02-02T14:43:11.060Z,4.50
2023-02-02T14:45:41.023Z,3.88
2023-02-02T14:48:07.381Z,3.90
2023-02-02T14:50:40.534Z,2.50
2023-02-02T14:53:16.016Z,3.70
2023-02-02T14:56:11.792Z,1.80
2023-02-02T14:58:48.028Z,1.70
2023-02-02T15:01:17.492Z,2.47
2023-02-02T15:03:44.477Z,2.40
2023-02-02T15:06:25.973Z,1.20
2023-02-02T15:09:11.291Z,3.10
2023-02-02T15:12:00.248Z,4.53
2023-02-02T15:14:45.788Z,3.50
2023-02-02T15:17:21.069Z,8.13
2023-02-02T15:20:08.324Z,7.45
2023-02-02T15:22:34.683Z,5.28
2023-02-02T15:25:04.047Z,3.35
2023-02-02T15:27:31.601Z,3.10
2023-02-02T15:30:02.762Z,3.05
2023-02-02T15:32:30.699Z,5.45
2023-02-02T15:34:59.255Z,4.28
2023-02-02T15:37:29.725Z,1.55
2023-02-02T15:40:00.080Z,2.13
2023-02-02T15:42:55.074Z,4.25
2023-02-02T15:45:31.353Z,1.10
2023-02-02T15:47:58.547Z,1.20
2023-02-02T15:50:25.176Z,1.87
2023-02-02T15:52:54.580Z,1.20
2023-02-02T15:55:32.323Z,0.82
2023-02-02T16:00:27.186Z,0.80
2023-02-02T16:03:05.903Z,0.77
2023-02-02T16:05:35.258Z,2.20
2023-02-02T16:08:06.403Z,3.50
2023-02-02T16:10:33.378Z,3.33
2023-02-02T16:12:59.848Z,2.00
2023-02-02T16:15:28.240Z,2.10
2023-02-02T16:17:59.713Z,2.55
2023-02-02T16:20:27.229Z,1.58
2023-02-02T16:22:55.891Z,2.10
2023-02-02T16:25:25.533Z,1.67
2023-02-02T16:27:53.026Z,2.05
2023-02-02T16:30:37.177Z,2.40
2023-02-02T16:33:22.491Z,2.50
2023-02-02T16:35:48.977Z,1.92
2023-02-02T16:38:35.636Z,0.70
2023-02-02T16:41:02.978Z,1.43
2023-02-02T16:43:32.061Z,1.48
2023-02-02T16:46:00.181Z,1.05
2023-02-02T16:48:26.621Z,2.80
2023-02-02T16:51:03.275Z,0.80
2023-02-02T16:53:33.049Z,2.42
2023-02-02T16:55:59.430Z,1.25
2023-02-02T16:58:28.719Z,1.38
2023-02-02T17:01:12.598Z,1.30
2023-02-02T17:03:45.180Z,1.52
2023-02-02T17:06:11.817Z,1.42
2023-02-02T17:08:41.860Z,1.15
2023-02-02T17:11:20.244Z,1.55
2023-02-02T17:13:46.637Z,1.33
2023-02-02T17:16:16.097Z,1.25
2023-02-02T17:18:44.900Z,0.90
2023-02-02T17:21:16.654Z,1.10
2023-02-02T17:23:45.570Z,1.08
2023-02-02T17:26:12.819Z,1.75
2023-02-02T17:28:40.591Z,1.20
2023-02-02T17:31:11.990Z,1.48
2023-02-02T17:33:38.809Z,1.85
2023-02-02T17:36:05.358Z,1.50
2023-02-02T17:38:34.511Z,0.85
2023-02-02T17:41:02.088Z,1.63
2023-02-02T17:43:32.294Z,1.25
2023-02-02T17:45:58.803Z,2.15
2023-02-02T17:48:25.468Z,0.80
2023-02-02T17:50:51.905Z,3.03
2023-02-02T17:53:20.930Z,2.10
2023-02-02T17:58:17.018Z,3.10
2023-02-02T18:00:47.879Z,5.15
2023-02-02T18:03:17.546Z,2.53
2023-02-02T18:05:43.981Z,2.85
2023-02-02T18:08:13.403Z,4.50
2023-02-02T18:10:40.124Z,1.60
2023-02-02T18:13:06.580Z,2.30
2023-02-02T18:15:35.215Z,2.00
2023-02-02T18:18:02.104Z,1.35
2023-02-02T18:20:28.515Z,1.30
2023-02-02T18:22:54.904Z,1.60
2023-02-02T18:25:21.244Z,2.55
2023-02-02T18:27:49.110Z,1.25
2023-02-02T18:32:42.130Z,1.30
2023-02-02T18:35:10.563Z,2.08
2023-02-02T18:37:37.322Z,1.40
2023-02-02T18:40:03.918Z,1.02
2023-02-02T18:42:32.548Z,2.10
2023-02-02T18:44:59.745Z,2.20
2023-02-02T18:47:26.440Z,2.95
2023-02-02T18:49:52.797Z,2.70
2023-02-02T18:52:19.294Z,6.03
2023-02-02T18:54:48.949Z,5.05
2023-02-02T18:57:15.731Z,7.88
2023-02-02T18:59:42.532Z,4.50
2023-02-02T19:02:16.273Z,1.70
2023-02-02T19:05:01.236Z,4.35
2023-02-02T19:07:46.011Z,3.03
2023-02-02T19:10:12.402Z,3.05
2023-02-02T19:12:38.856Z,3.35
2023-02-02T19:15:13.046Z,4.40
2023-02-02T19:17:40.122Z,5.00
2023-02-02T19:20:18.313Z,5.63
2023-02-02T19:22:44.755Z,11.80
2023-02-02T19:25:12.870Z,5.38
2023-02-02T19:27:39.640Z,9.95
2023-02-02T19:30:09.456Z,6.38
2023-02-02T19:32:36.085Z,7.65
2023-02-02T19:35:02.704Z,12.52
2023-02-02T19:37:29.968Z,7.82
2023-02-02T19:40:16.889Z,3.40
2023-02-02T19:42:56.235Z,8.82
2023-02-02T19:45:27.334Z,5.55
2023-02-02T19:47:55.846Z,7.13
2023-02-02T19:50:23.075Z,7.97
2023-02-02T19:52:51.109Z,6.53
2023-02-02T19:55:20.927Z,7.75
2023-02-02T19:57:47.335Z,7.00
2023-02-02T20:00:25.362Z,9.52
2023-02-02T20:02:55.553Z,8.35
2023-02-02T20:05:23.338Z,18.60
2023-02-02T20:07:55.818Z,6.57
2023-02-02T20:10:23.637Z,5.15
2023-02-02T20:15:22.144Z,4.45
2023-02-02T20:17:48.488Z,4.55
2023-02-02T20:20:23.959Z,5.65
2023-02-02T20:22:54.323Z,3.80
2023-02-02T20:25:20.686Z,4.30
2023-02-02T20:27:47.112Z,4.35
2023-02-02T20:30:21.807Z,7.38
2023-02-02T20:32:51.045Z,7.00
2023-02-02T20:35:33.284Z,5.15
2023-02-02T20:37:59.791Z,6.18
2023-02-02T20:40:27.946Z,7.57
2023-02-02T20:42:54.699Z,7.03
2023-02-02T20:45:24.207Z,3.20
2023-02-02T20:47:50.696Z,3.25
2023-02-02T20:50:18.539Z,4.57
2023-02-02T20:55:11.338Z,5.57
2023-02-02T20:57:38.705Z,4.60
2023-02-02T21:00:06.324Z,4.45
2023-02-02T21:02:35.852Z,4.72
2023-02-02T21:05:02.356Z,2.67
2023-02-02T21:07:28.989Z,4.57
2023-02-02T21:09:55.677Z,2.80
2023-02-02T21:12:25.987Z,3.78
2023-02-02T21:14:53.351Z,3.08
2023-02-02T21:17:19.909Z,3.60
2023-02-02T21:19:46.363Z,2.72
2023-02-02T21:22:12.937Z,3.08
2023-02-02T21:24:39.854Z,2.42
2023-02-02T21:27:06.390Z,3.92
2023-02-02T21:29:33.025Z,1.75
2023-02-02T21:32:02.160Z,3.08
2023-02-02T21:34:28.959Z,2.10
2023-02-02T21:36:58.207Z,3.58
2023-02-02T21:39:32.340Z,5.00
2023-02-02T21:41:58.694Z,4.10
2023-02-02T21:44:26.151Z,2.47
2023-02-02T21:46:52.523Z,5.18
2023-02-02T21:49:21.984Z,4.40
2023-02-02T21:51:48.765Z,2.70
2023-02-02T21:54:20.763Z,2.33
2023-02-02T21:56:47.189Z,1.58
2023-02-02T21:59:16.406Z,3.97
2023-02-02T22:01:43.551Z,3.25
2023-02-02T22:04:30.244Z,4.15
2023-02-02T22:06:59.334Z,3.70
2023-02-02T22:09:37.115Z,4.40
2023-02-02T22:14:35.855Z,4.15
2023-02-02T22:17:08.008Z,2.58
2023-02-02T22:19:37.611Z,2.03
2023-02-02T22:22:10.617Z,2.20
2023-02-02T22:24:36.992Z,2.42
2023-02-02T22:27:03.451Z,5.00
2023-02-02T22:29:34.145Z,2.67
2023-02-02T22:32:00.755Z,3.42
2023-02-02T22:34:27.171Z,1.60
2023-02-02T22:36:53.507Z,5.63
2023-02-02T22:39:19.841Z,2.10
2023-02-02T22:41:46.490Z,2.15
2023-02-02T22:44:12.823Z,2.22
2023-02-02T22:46:39.241Z,3.00
2023-02-02T22:49:05.627Z,2.17
2023-02-02T22:51:31.944Z,2.58
2023-02-02T22:53:58.315Z,3.63
2023-02-02T22:56:24.740Z,1.42
2023-02-02T22:58:51.157Z,1.67
2023-02-02T23:01:17.524Z,1.67
2023-02-02T23:03:43.992Z,1.92
2023-02-02T23:06:10.453Z,6.20
2023-02-02T23:08:36.811Z,1.23
2023-02-02T23:11:03.219Z,2.55
2023-02-02T23:13:29.565Z,3.50
2023-02-02T23:15:56.773Z,1.95
2023-02-02T23:18:23.176Z,1.42
2023-02-02T23:20:50.483Z,1.00
2023-02-02T23:23:16.858Z,2.38
2023-02-02T23:25:43.224Z,1.10
2023-02-02T23:28:10.517Z,1.63
2023-02-02T23:30:37.913Z,0.90
2023-02-02T23:33:04.311Z,1.60
2023-02-02T23:35:30.723Z,1.55
2023-02-02T23:37:57.126Z,1.35
2023-02-02T23:40:23.486Z,1.85
2023-02-02T23:42:49.822Z,1.50
2023-02-02T23:45:16.581Z,1.20
2023-02-02T23:47:43.028Z,0.98
2023-02-02T23:50:09.767Z,1.33
2023-02-02T23:52:36.451Z,1.58
2023-02-02T23:55:03.479Z,1.80
2023-02-02T23:57:29.968Z,1.80
2023-02-02T23:59:56.381Z,1.10
